sensor_id;sensor_type;location;lat;lon;timestamp;pressure;altitude;pressure_sealevel;temperature;humidity
22333;BME280;11334;36.986;-121.936;2022-10-26T00:00:48;101351.56;;;18.42;65.01
22333;BME280;11334;36.986;-121.936;2022-10-26T00:03:14;101339.84;;;18.43;65.08
22333;BME280;11334;36.986;-121.936;2022-10-26T00:05:41;101343.59;;;18.49;64.97
22333;BME280;11334;36.986;-121.936;2022-10-26T00:08:08;101353.13;;;18.51;64.73
22333;BME280;11334;36.986;-121.936;2022-10-26T00:10:35;101362.25;;;18.57;64.65
22333;BME280;11334;36.986;-121.936;2022-10-26T00:13:02;101346.31;;;18.55;64.56
22333;BME280;11334;36.986;-121.936;2022-10-26T00:15:28;101354.44;;;18.62;64.29
22333;BME280;11334;36.986;-121.936;2022-10-26T00:17:55;101366.47;;;18.66;64.03
22333;BME280;11334;36.986;-121.936;2022-10-26T00:20:21;101367.94;;;18.68;64.38
22333;BME280;11334;36.986;-121.936;2022-10-26T00:22:47;101361.72;;;18.67;64.28
22333;BME280;11334;36.986;-121.936;2022-10-26T00:25:13;101364.78;;;18.65;64.43
22333;BME280;11334;36.986;-121.936;2022-10-26T00:27:40;101360.25;;;18.65;64.70
22333;BME280;11334;36.986;-121.936;2022-10-26T00:30:06;101368.53;;;18.64;64.76
22333;BME280;11334;36.986;-121.936;2022-10-26T00:32:33;101366.41;;;18.59;64.90
22333;BME280;11334;36.986;-121.936;2022-10-26T00:34:59;101369.09;;;18.59;65.23
22333;BME280;11334;36.986;-121.936;2022-10-26T00:37:26;101364.94;;;18.57;65.26
22333;BME280;11334;36.986;-121.936;2022-10-26T00:39:52;101363.66;;;18.53;64.81
22333;BME280;11334;36.986;-121.936;2022-10-26T00:42:20;101360.34;;;18.51;64.99
22333;BME280;11334;36.986;-121.936;2022-10-26T00:49:44;101365.19;;;18.41;65.57
22333;BME280;11334;36.986;-121.936;2022-10-26T00:52:13;101369.72;;;18.40;65.70
22333;BME280;11334;36.986;-121.936;2022-10-26T00:54:40;101367.00;;;18.34;65.88
22333;BME280;11334;36.986;-121.936;2022-10-26T00:57:06;101362.38;;;18.28;66.17
22333;BME280;11334;36.986;-121.936;2022-10-26T00:59:33;101354.06;;;18.23;66.30
22333;BME280;11334;36.986;-121.936;2022-10-26T01:01:59;101366.66;;;18.23;66.45
22333;BME280;11334;36.986;-121.936;2022-10-26T01:04:26;101365.66;;;18.24;65.91
22333;BME280;11334;36.986;-121.936;2022-10-26T01:06:53;101365.66;;;18.24;65.92
22333;BME280;11334;36.986;-121.936;2022-10-26T01:09:20;101366.38;;;18.18;66.28
22333;BME280;11334;36.986;-121.936;2022-10-26T01:11:46;101368.16;;;18.11;66.33
22333;BME280;11334;36.986;-121.936;2022-10-26T01:14:15;101369.75;;;18.05;66.36
22333;BME280;11334;36.986;-121.936;2022-10-26T01:16:47;101371.97;;;18.02;66.41
22333;BME280;11334;36.986;-121.936;2022-10-26T01:21:56;101377.34;;;17.88;66.58
22333;BME280;11334;36.986;-121.936;2022-10-26T01:24:50;101374.78;;;17.80;67.07
22333;BME280;11334;36.986;-121.936;2022-10-26T01:33:28;101381.72;;;17.60;67.42
22333;BME280;11334;36.986;-121.936;2022-10-26T01:36:13;101386.28;;;17.60;67.36
22333;BME280;11334;36.986;-121.936;2022-10-26T01:41:28;101416.03;;;17.50;67.94
22333;BME280;11334;36.986;-121.936;2022-10-26T01:44:01;101409.00;;;17.49;67.87
22333;BME280;11334;36.986;-121.936;2022-10-26T01:46:34;101406.22;;;17.43;68.12
22333;BME280;11334;36.986;-121.936;2022-10-26T01:49:05;101412.50;;;17.36;67.52
22333;BME280;11334;36.986;-121.936;2022-10-26T01:51:33;101421.28;;;17.30;68.25
22333;BME280;11334;36.986;-121.936;2022-10-26T01:54:00;101421.81;;;17.25;68.66
22333;BME280;11334;36.986;-121.936;2022-10-26T01:56:30;101422.38;;;17.21;68.57
22333;BME280;11334;36.986;-121.936;2022-10-26T01:59:17;101421.75;;;17.11;68.84
22333;BME280;11334;36.986;-121.936;2022-10-26T02:15:21;101434.16;;;16.90;69.12
22333;BME280;11334;36.986;-121.936;2022-10-26T02:18:06;101456.31;;;16.84;69.15
22333;BME280;11334;36.986;-121.936;2022-10-26T02:20:43;101453.69;;;16.76;69.66
22333;BME280;11334;36.986;-121.936;2022-10-26T02:23:12;101450.72;;;16.71;69.82
22333;BME280;11334;36.986;-121.936;2022-10-26T02:25:44;101455.06;;;16.72;69.67
22333;BME280;11334;36.986;-121.936;2022-10-26T02:28:16;101458.56;;;16.73;69.62
22333;BME280;11334;36.986;-121.936;2022-10-26T02:30:45;101467.31;;;16.67;69.43
22333;BME280;11334;36.986;-121.936;2022-10-26T02:33:14;101469.22;;;16.58;69.68
22333;BME280;11334;36.986;-121.936;2022-10-26T02:35:42;101474.56;;;16.58;69.46
22333;BME280;11334;36.986;-121.936;2022-10-26T02:38:12;101468.72;;;16.55;69.74
22333;BME280;11334;36.986;-121.936;2022-10-26T02:40:39;101475.44;;;16.51;69.82
22333;BME280;11334;36.986;-121.936;2022-10-26T02:43:12;101468.63;;;16.48;69.81
22333;BME280;11334;36.986;-121.936;2022-10-26T02:45:45;101473.81;;;16.42;69.51
22333;BME280;11334;36.986;-121.936;2022-10-26T02:48:12;101471.50;;;16.39;69.13
22333;BME280;11334;36.986;-121.936;2022-10-26T02:51:13;101475.00;;;16.40;68.83
22333;BME280;11334;36.986;-121.936;2022-10-26T02:53:53;101466.69;;;16.35;68.49
22333;BME280;11334;36.986;-121.936;2022-10-26T02:56:50;101482.25;;;16.31;68.81
22333;BME280;11334;36.986;-121.936;2022-10-26T02:59:19;101486.47;;;16.26;68.66
22333;BME280;11334;36.986;-121.936;2022-10-26T03:01:47;101478.78;;;16.23;68.46
22333;BME280;11334;36.986;-121.936;2022-10-26T03:04:19;101471.28;;;16.18;68.49
22333;BME280;11334;36.986;-121.936;2022-10-26T03:06:53;101469.25;;;16.20;68.43
22333;BME280;11334;36.986;-121.936;2022-10-26T03:09:19;101460.75;;;16.17;68.58
22333;BME280;11334;36.986;-121.936;2022-10-26T03:11:45;101464.94;;;16.12;68.75
22333;BME280;11334;36.986;-121.936;2022-10-26T03:14:12;101476.16;;;16.07;68.43
22333;BME280;11334;36.986;-121.936;2022-10-26T03:16:38;101482.22;;;16.01;68.66
22333;BME280;11334;36.986;-121.936;2022-10-26T03:19:04;101484.53;;;16.04;68.66
22333;BME280;11334;36.986;-121.936;2022-10-26T03:21:30;101488.53;;;16.00;68.35
22333;BME280;11334;36.986;-121.936;2022-10-26T03:23:56;101492.38;;;15.98;68.55
22333;BME280;11334;36.986;-121.936;2022-10-26T03:26:22;101482.75;;;15.89;68.59
22333;BME280;11334;36.986;-121.936;2022-10-26T03:28:49;101484.25;;;15.83;68.72
22333;BME280;11334;36.986;-121.936;2022-10-26T03:31:15;101486.94;;;15.83;68.25
22333;BME280;11334;36.986;-121.936;2022-10-26T03:33:41;101490.44;;;15.76;68.76
22333;BME280;11334;36.986;-121.936;2022-10-26T03:36:08;101481.63;;;15.68;68.38
22333;BME280;11334;36.986;-121.936;2022-10-26T03:38:34;101480.84;;;15.59;68.88
22333;BME280;11334;36.986;-121.936;2022-10-26T03:41:00;101477.00;;;15.46;69.53
22333;BME280;11334;36.986;-121.936;2022-10-26T03:43:26;101485.84;;;15.47;69.43
22333;BME280;11334;36.986;-121.936;2022-10-26T03:45:53;101486.19;;;15.44;68.71
22333;BME280;11334;36.986;-121.936;2022-10-26T03:48:19;101483.88;;;15.41;69.17
22333;BME280;11334;36.986;-121.936;2022-10-26T03:50:45;101484.72;;;15.33;69.18
22333;BME280;11334;36.986;-121.936;2022-10-26T03:53:11;101490.22;;;15.24;69.37
22333;BME280;11334;36.986;-121.936;2022-10-26T03:55:37;101489.22;;;15.17;69.68
22333;BME280;11334;36.986;-121.936;2022-10-26T03:58:04;101487.91;;;15.13;69.20
22333;BME280;11334;36.986;-121.936;2022-10-26T04:00:30;101494.56;;;15.17;68.95
22333;BME280;11334;36.986;-121.936;2022-10-26T04:02:58;101489.88;;;15.03;69.69
22333;BME280;11334;36.986;-121.936;2022-10-26T04:05:26;101496.53;;;14.99;69.66
22333;BME280;11334;36.986;-121.936;2022-10-26T04:07:58;101489.06;;;14.95;69.66
22333;BME280;11334;36.986;-121.936;2022-10-26T04:10:25;101485.22;;;14.97;69.42
22333;BME280;11334;36.986;-121.936;2022-10-26T04:12:52;101482.03;;;14.86;69.54
22333;BME280;11334;36.986;-121.936;2022-10-26T04:15:19;101481.84;;;14.80;69.63
22333;BME280;11334;36.986;-121.936;2022-10-26T04:17:46;101500.03;;;14.76;69.53
22333;BME280;11334;36.986;-121.936;2022-10-26T04:20:13;101489.16;;;14.70;69.30
22333;BME280;11334;36.986;-121.936;2022-10-26T04:22:40;101484.66;;;14.62;69.44
22333;BME280;11334;36.986;-121.936;2022-10-26T04:25:06;101485.47;;;14.55;69.65
22333;BME280;11334;36.986;-121.936;2022-10-26T04:27:32;101486.97;;;14.42;70.45
22333;BME280;11334;36.986;-121.936;2022-10-26T04:30:00;101484.78;;;14.45;69.59
22333;BME280;11334;36.986;-121.936;2022-10-26T04:32:26;101481.97;;;14.39;70.15
22333;BME280;11334;36.986;-121.936;2022-10-26T04:34:52;101486.13;;;14.33;70.09
22333;BME280;11334;36.986;-121.936;2022-10-26T04:37:19;101488.78;;;14.33;69.93
22333;BME280;11334;36.986;-121.936;2022-10-26T04:39:45;101472.91;;;14.16;70.38
22333;BME280;11334;36.986;-121.936;2022-10-26T04:42:11;101486.06;;;14.18;70.48
22333;BME280;11334;36.986;-121.936;2022-10-26T04:44:38;101489.72;;;14.17;70.01
22333;BME280;11334;36.986;-121.936;2022-10-26T04:47:04;101484.72;;;14.14;69.42
22333;BME280;11334;36.986;-121.936;2022-10-26T04:49:30;101491.72;;;14.15;69.31
22333;BME280;11334;36.986;-121.936;2022-10-26T04:51:56;101497.38;;;14.12;69.49
22333;BME280;11334;36.986;-121.936;2022-10-26T04:54:22;101495.31;;;14.06;70.13
22333;BME280;11334;36.986;-121.936;2022-10-26T04:56:50;101497.50;;;14.02;70.01
22333;BME280;11334;36.986;-121.936;2022-10-26T04:59:16;101499.47;;;14.00;69.80
22333;BME280;11334;36.986;-121.936;2022-10-26T05:01:42;101496.56;;;13.86;69.74
22333;BME280;11334;36.986;-121.936;2022-10-26T05:04:08;101492.38;;;13.84;70.35
22333;BME280;11334;36.986;-121.936;2022-10-26T05:06:35;101496.72;;;13.85;70.16
22333;BME280;11334;36.986;-121.936;2022-10-26T05:09:01;101500.63;;;13.73;70.00
22333;BME280;11334;36.986;-121.936;2022-10-26T05:11:27;101496.94;;;13.66;70.44
22333;BME280;11334;36.986;-121.936;2022-10-26T05:13:53;101495.28;;;13.65;70.32
22333;BME280;11334;36.986;-121.936;2022-10-26T05:16:19;101505.56;;;13.60;70.29
22333;BME280;11334;36.986;-121.936;2022-10-26T05:18:49;101496.38;;;13.55;70.42
22333;BME280;11334;36.986;-121.936;2022-10-26T05:21:16;101506.97;;;13.47;70.98
22333;BME280;11334;36.986;-121.936;2022-10-26T05:23:51;101509.16;;;13.51;70.63
22333;BME280;11334;36.986;-121.936;2022-10-26T05:26:23;101505.28;;;13.46;70.91
22333;BME280;11334;36.986;-121.936;2022-10-26T05:28:50;101515.16;;;13.28;71.58
22333;BME280;11334;36.986;-121.936;2022-10-26T05:31:16;101518.81;;;13.27;71.35
22333;BME280;11334;36.986;-121.936;2022-10-26T05:33:42;101514.69;;;13.32;70.53
22333;BME280;11334;36.986;-121.936;2022-10-26T05:36:09;101517.34;;;13.32;71.00
22333;BME280;11334;36.986;-121.936;2022-10-26T05:38:35;101514.84;;;13.31;71.06
22333;BME280;11334;36.986;-121.936;2022-10-26T05:41:01;101521.47;;;13.27;71.62
22333;BME280;11334;36.986;-121.936;2022-10-26T05:43:27;101520.25;;;13.22;71.44
22333;BME280;11334;36.986;-121.936;2022-10-26T05:45:54;101516.00;;;13.11;71.58
22333;BME280;11334;36.986;-121.936;2022-10-26T05:48:21;101513.59;;;13.18;71.66
22333;BME280;11334;36.986;-121.936;2022-10-26T05:50:47;101519.81;;;13.09;71.67
22333;BME280;11334;36.986;-121.936;2022-10-26T05:53:13;101517.47;;;13.06;71.53
22333;BME280;11334;36.986;-121.936;2022-10-26T05:55:40;101520.59;;;13.01;71.04
22333;BME280;11334;36.986;-121.936;2022-10-26T05:58:13;101518.53;;;12.95;71.23
22333;BME280;11334;36.986;-121.936;2022-10-26T06:00:57;101527.13;;;12.90;71.79
22333;BME280;11334;36.986;-121.936;2022-10-26T06:06:32;101533.09;;;12.74;71.98
22333;BME280;11334;36.986;-121.936;2022-10-26T06:09:01;101531.88;;;12.69;72.31
22333;BME280;11334;36.986;-121.936;2022-10-26T06:11:28;101525.09;;;12.57;72.76
22333;BME280;11334;36.986;-121.936;2022-10-26T06:13:54;101524.91;;;12.68;72.31
22333;BME280;11334;36.986;-121.936;2022-10-26T06:21:51;101504.06;;;12.46;73.53
22333;BME280;11334;36.986;-121.936;2022-10-26T06:24:28;101499.75;;;12.45;73.62
22333;BME280;11334;36.986;-121.936;2022-10-26T06:27:23;101510.75;;;12.50;72.42
22333;BME280;11334;36.986;-121.936;2022-10-26T06:30:01;101515.09;;;12.51;72.90
22333;BME280;11334;36.986;-121.936;2022-10-26T06:32:29;101514.38;;;12.49;72.48
22333;BME280;11334;36.986;-121.936;2022-10-26T06:35:21;101518.88;;;12.49;72.64
22333;BME280;11334;36.986;-121.936;2022-10-26T06:37:50;101514.38;;;12.49;72.26
22333;BME280;11334;36.986;-121.936;2022-10-26T06:40:18;101515.38;;;12.48;72.24
22333;BME280;11334;36.986;-121.936;2022-10-26T06:42:44;101519.09;;;12.38;72.24
22333;BME280;11334;36.986;-121.936;2022-10-26T06:45:15;101513.63;;;12.39;72.09
22333;BME280;11334;36.986;-121.936;2022-10-26T06:55:54;101509.34;;;12.29;72.12
22333;BME280;11334;36.986;-121.936;2022-10-26T06:58:26;101512.84;;;12.30;72.20
22333;BME280;11334;36.986;-121.936;2022-10-26T07:00:54;101508.03;;;12.16;72.55
22333;BME280;11334;36.986;-121.936;2022-10-26T07:03:21;101500.22;;;12.14;72.87
22333;BME280;11334;36.986;-121.936;2022-10-26T07:05:48;101499.28;;;12.06;72.20
22333;BME280;11334;36.986;-121.936;2022-10-26T07:08:14;101502.22;;;12.03;72.34
22333;BME280;11334;36.986;-121.936;2022-10-26T07:10:40;101502.91;;;12.05;72.05
22333;BME280;11334;36.986;-121.936;2022-10-26T07:13:08;101506.88;;;12.01;72.52
22333;BME280;11334;36.986;-121.936;2022-10-26T07:15:36;101511.47;;;11.99;72.62
22333;BME280;11334;36.986;-121.936;2022-10-26T07:18:04;101519.19;;;11.93;72.96
22333;BME280;11334;36.986;-121.936;2022-10-26T07:20:35;101513.88;;;11.93;72.76
22333;BME280;11334;36.986;-121.936;2022-10-26T07:23:02;101513.56;;;11.96;72.22
22333;BME280;11334;36.986;-121.936;2022-10-26T07:25:31;101514.25;;;11.98;72.20
22333;BME280;11334;36.986;-121.936;2022-10-26T07:27:59;101508.72;;;11.91;72.93
22333;BME280;11334;36.986;-121.936;2022-10-26T07:30:26;101502.47;;;11.73;73.29
22333;BME280;11334;36.986;-121.936;2022-10-26T07:33:07;101510.22;;;11.67;73.89
22333;BME280;11334;36.986;-121.936;2022-10-26T07:35:34;101508.50;;;11.75;73.29
22333;BME280;11334;36.986;-121.936;2022-10-26T07:38:00;101510.72;;;11.80;72.99
22333;BME280;11334;36.986;-121.936;2022-10-26T07:40:27;101515.19;;;11.79;72.65
22333;BME280;11334;36.986;-121.936;2022-10-26T07:42:57;101517.56;;;11.82;72.87
22333;BME280;11334;36.986;-121.936;2022-10-26T07:45:25;101515.91;;;11.72;73.18
22333;BME280;11334;36.986;-121.936;2022-10-26T07:47:52;101513.09;;;11.73;73.68
22333;BME280;11334;36.986;-121.936;2022-10-26T07:50:19;101515.19;;;11.79;73.69
22333;BME280;11334;36.986;-121.936;2022-10-26T07:52:45;101510.03;;;11.78;73.93
22333;BME280;11334;36.986;-121.936;2022-10-26T07:55:11;101505.72;;;11.68;73.86
22333;BME280;11334;36.986;-121.936;2022-10-26T07:57:38;101519.69;;;11.79;74.14
22333;BME280;11334;36.986;-121.936;2022-10-26T08:00:06;101522.19;;;11.71;74.05
22333;BME280;11334;36.986;-121.936;2022-10-26T08:02:33;101515.50;;;11.76;74.57
22333;BME280;11334;36.986;-121.936;2022-10-26T08:04:59;101514.50;;;11.77;73.96
22333;BME280;11334;36.986;-121.936;2022-10-26T08:07:26;101526.22;;;11.84;74.14
22333;BME280;11334;36.986;-121.936;2022-10-26T08:09:52;101514.19;;;11.80;74.73
22333;BME280;11334;36.986;-121.936;2022-10-26T08:12:19;101504.56;;;11.79;74.65
22333;BME280;11334;36.986;-121.936;2022-10-26T08:14:45;101510.03;;;11.78;74.79
22333;BME280;11334;36.986;-121.936;2022-10-26T08:17:11;101505.72;;;11.77;75.06
22333;BME280;11334;36.986;-121.936;2022-10-26T08:19:37;101508.34;;;11.77;74.91
22333;BME280;11334;36.986;-121.936;2022-10-26T08:22:04;101514.63;;;11.76;75.45
22333;BME280;11334;36.986;-121.936;2022-10-26T08:24:31;101513.06;;;11.83;75.03
22333;BME280;11334;36.986;-121.936;2022-10-26T08:26:57;101514.91;;;11.82;74.90
22333;BME280;11334;36.986;-121.936;2022-10-26T08:29:23;101499.06;;;11.90;74.55
22333;BME280;11334;36.986;-121.936;2022-10-26T08:31:49;101506.81;;;11.84;74.93
22333;BME280;11334;36.986;-121.936;2022-10-26T08:34:15;101495.78;;;11.79;75.51
22333;BME280;11334;36.986;-121.936;2022-10-26T08:36:42;101503.97;;;11.85;74.35
22333;BME280;11334;36.986;-121.936;2022-10-26T08:39:08;101502.75;;;11.80;74.48
22333;BME280;11334;36.986;-121.936;2022-10-26T08:41:46;101514.59;;;11.85;74.38
22333;BME280;11334;36.986;-121.936;2022-10-26T08:44:25;101500.06;;;11.89;74.03
22333;BME280;11334;36.986;-121.936;2022-10-26T08:47:18;101506.34;;;11.88;74.23
22333;BME280;11334;36.986;-121.936;2022-10-26T08:56:07;101504.56;;;11.79;73.22
22333;BME280;11334;36.986;-121.936;2022-10-26T08:58:44;101511.75;;;11.69;73.97
22333;BME280;11334;36.986;-121.936;2022-10-26T09:01:11;101502.94;;;11.69;73.58
22333;BME280;11334;36.986;-121.936;2022-10-26T09:03:38;101508.09;;;11.70;73.17
22333;BME280;11334;36.986;-121.936;2022-10-26T09:09:20;101514.19;;;11.44;74.41
22333;BME280;11334;36.986;-121.936;2022-10-26T09:14:14;101510.97;;;11.41;73.62
22333;BME280;11334;36.986;-121.936;2022-10-26T09:19:25;101504.00;;;11.49;73.21
22333;BME280;11334;36.986;-121.936;2022-10-26T09:24:33;101513.78;;;11.21;73.78
22333;BME280;11334;36.986;-121.936;2022-10-26T09:29:41;101513.38;;;11.25;73.96
22333;BME280;11334;36.986;-121.936;2022-10-26T09:32:19;101505.94;;;11.29;73.37
22333;BME280;11334;36.986;-121.936;2022-10-26T09:34:47;101511.00;;;11.22;73.02
22333;BME280;11334;36.986;-121.936;2022-10-26T09:37:20;101516.31;;;11.22;73.14
22333;BME280;11334;36.986;-121.936;2022-10-26T09:45:31;101516.03;;;11.16;72.67
22333;BME280;11334;36.986;-121.936;2022-10-26T09:51:28;101508.22;;;10.96;73.11
22333;BME280;11334;36.986;-121.936;2022-10-26T09:53:58;101514.50;;;11.04;72.70
22333;BME280;11334;36.986;-121.936;2022-10-26T09:56:27;101524.28;;;11.03;73.32
22333;BME280;11334;36.986;-121.936;2022-10-26T09:59:03;101518.97;;;11.03;72.90
22333;BME280;11334;36.986;-121.936;2022-10-26T10:01:33;101515.19;;;10.97;72.68
22333;BME280;11334;36.986;-121.936;2022-10-26T10:04:17;101525.25;;;10.84;73.37
22333;BME280;11334;36.986;-121.936;2022-10-26T10:07:16;101525.13;;;10.85;73.00
22333;BME280;11334;36.986;-121.936;2022-10-26T10:09:42;101523.31;;;10.86;72.91
22333;BME280;11334;36.986;-121.936;2022-10-26T10:12:19;101530.00;;;10.80;72.95
22333;BME280;11334;36.986;-121.936;2022-10-26T10:14:56;101529.44;;;10.77;73.13
22333;BME280;11334;36.986;-121.936;2022-10-26T10:17:23;101533.78;;;10.78;73.39
22333;BME280;11334;36.986;-121.936;2022-10-26T10:19:50;101536.41;;;10.69;73.05
22333;BME280;11334;36.986;-121.936;2022-10-26T10:22:19;101522.59;;;10.65;73.26
22333;BME280;11334;36.986;-121.936;2022-10-26T10:24:56;101521.91;;;10.63;73.64
22333;BME280;11334;36.986;-121.936;2022-10-26T10:27:24;101514.06;;;10.52;73.75
22333;BME280;11334;36.986;-121.936;2022-10-26T10:29:52;101515.19;;;10.59;73.55
22333;BME280;11334;36.986;-121.936;2022-10-26T10:32:27;101505.72;;;10.57;73.17
22333;BME280;11334;36.986;-121.936;2022-10-26T10:34:58;101504.84;;;10.47;74.01
22333;BME280;11334;36.986;-121.936;2022-10-26T10:37:31;101512.28;;;10.53;73.49
22333;BME280;11334;36.986;-121.936;2022-10-26T10:42:37;101504.56;;;10.50;73.51
22333;BME280;11334;36.986;-121.936;2022-10-26T10:45:05;101505.44;;;10.50;73.91
22333;BME280;11334;36.986;-121.936;2022-10-26T10:47:38;101503.75;;;10.49;73.65
22333;BME280;11334;36.986;-121.936;2022-10-26T10:50:14;101513.91;;;10.44;73.37
22333;BME280;11334;36.986;-121.936;2022-10-26T10:52:42;101509.59;;;10.43;73.45
22333;BME280;11334;36.986;-121.936;2022-10-26T10:55:16;101508.59;;;10.35;73.88
22333;BME280;11334;36.986;-121.936;2022-10-26T11:00:22;101501.19;;;10.20;73.52
22333;BME280;11334;36.986;-121.936;2022-10-26T11:03:01;101491.44;;;10.20;73.63
22333;BME280;11334;36.986;-121.936;2022-10-26T11:05:57;101500.19;;;10.11;74.34
22333;BME280;11334;36.986;-121.936;2022-10-26T11:08:39;101502.56;;;10.14;73.79
22333;BME280;11334;36.986;-121.936;2022-10-26T11:11:32;101496.16;;;10.17;73.80
22333;BME280;11334;36.986;-121.936;2022-10-26T11:16:39;101489.06;;;10.08;73.63
22333;BME280;11334;36.986;-121.936;2022-10-26T11:21:55;101492.09;;;10.04;73.69
22333;BME280;11334;36.986;-121.936;2022-10-26T11:26:58;101482.03;;;9.98;73.47
22333;BME280;11334;36.986;-121.936;2022-10-26T11:32:27;101478.84;;;9.94;73.14
22333;BME280;11334;36.986;-121.936;2022-10-26T11:41:01;101469.44;;;9.81;74.00
22333;BME280;11334;36.986;-121.936;2022-10-26T11:43:38;101469.28;;;9.82;74.23
22333;BME280;11334;36.986;-121.936;2022-10-26T11:46:17;101464.59;;;9.86;73.37
22333;BME280;11334;36.986;-121.936;2022-10-26T11:48:55;101476.28;;;9.83;73.64
22333;BME280;11334;36.986;-121.936;2022-10-26T11:54:09;101474.16;;;9.77;73.48
22333;BME280;11334;36.986;-121.936;2022-10-26T11:56:43;101468.03;;;9.77;74.26
22333;BME280;11334;36.986;-121.936;2022-10-26T11:59:23;101461.75;;;9.69;74.27
22333;BME280;11334;36.986;-121.936;2022-10-26T12:01:52;101478.88;;;9.74;73.85
22333;BME280;11334;36.986;-121.936;2022-10-26T12:04:21;101477.34;;;9.72;73.73
22333;BME280;11334;36.986;-121.936;2022-10-26T12:06:50;101472.88;;;9.72;73.59
22333;BME280;11334;36.986;-121.936;2022-10-26T12:09:26;101467.53;;;9.63;74.20
22333;BME280;11334;36.986;-121.936;2022-10-26T12:12:00;101473.66;;;9.63;74.14
22333;BME280;11334;36.986;-121.936;2022-10-26T12:20:06;101485.22;;;9.62;74.03
22333;BME280;11334;36.986;-121.936;2022-10-26T12:22:38;101489.97;;;9.68;74.29
22333;BME280;11334;36.986;-121.936;2022-10-26T12:35:37;101497.75;;;9.60;75.51
22333;BME280;11334;36.986;-121.936;2022-10-26T12:43:34;101503.19;;;9.68;75.50
22333;BME280;11334;36.986;-121.936;2022-10-26T12:48:40;101501.00;;;9.73;76.15
22333;BME280;11334;36.986;-121.936;2022-10-26T12:56:50;101501.63;;;9.86;75.92
22333;BME280;11334;36.986;-121.936;2022-10-26T12:59:31;101504.13;;;9.87;76.22
22333;BME280;11334;36.986;-121.936;2022-10-26T13:07:40;101508.50;;;9.88;76.68
22333;BME280;11334;36.986;-121.936;2022-10-26T13:15:24;101520.91;;;9.97;76.92
22333;BME280;11334;36.986;-121.936;2022-10-26T13:20:52;101512.03;;;10.08;77.08
22333;BME280;11334;36.986;-121.936;2022-10-26T13:23:25;101510.47;;;9.96;77.14
22333;BME280;11334;36.986;-121.936;2022-10-26T13:26:05;101510.91;;;10.01;77.52
22333;BME280;11334;36.986;-121.936;2022-10-26T13:33:42;101499.88;;;9.96;77.90
22333;BME280;11334;36.986;-121.936;2022-10-26T13:38:50;101525.56;;;10.14;76.72
22333;BME280;11334;36.986;-121.936;2022-10-26T13:41:33;101534.34;;;10.14;76.47
22333;BME280;11334;36.986;-121.936;2022-10-26T13:44:35;101528.78;;;10.17;75.89
22333;BME280;11334;36.986;-121.936;2022-10-26T13:47:16;101523.19;;;10.11;76.06
22333;BME280;11334;36.986;-121.936;2022-10-26T13:49:47;101521.66;;;10.09;75.92
22333;BME280;11334;36.986;-121.936;2022-10-26T13:52:19;101514.94;;;10.05;76.12
22333;BME280;11334;36.986;-121.936;2022-10-26T13:54:55;101522.34;;;10.10;75.87
22333;BME280;11334;36.986;-121.936;2022-10-26T13:57:41;101533.50;;;10.14;74.68
22333;BME280;11334;36.986;-121.936;2022-10-26T14:00:14;101533.19;;;9.98;74.76
22333;BME280;11334;36.986;-121.936;2022-10-26T14:02:41;101525.06;;;9.90;75.10
22333;BME280;11334;36.986;-121.936;2022-10-26T14:05:11;101534.59;;;10.02;75.12
22333;BME280;11334;36.986;-121.936;2022-10-26T14:07:53;101536.41;;;10.02;74.64
22333;BME280;11334;36.986;-121.936;2022-10-26T14:12:52;101552.94;;;9.94;74.98
22333;BME280;11334;36.986;-121.936;2022-10-26T14:15:24;101555.72;;;9.93;74.62
22333;BME280;11334;36.986;-121.936;2022-10-26T14:17:52;101554.03;;;9.92;74.71
22333;BME280;11334;36.986;-121.936;2022-10-26T14:20:22;101555.97;;;9.90;75.36
22333;BME280;11334;36.986;-121.936;2022-10-26T14:22:48;101551.75;;;9.87;75.57
22333;BME280;11334;36.986;-121.936;2022-10-26T14:25:24;101559.34;;;9.92;75.13
22333;BME280;11334;36.986;-121.936;2022-10-26T14:27:51;101559.63;;;9.89;74.77
22333;BME280;11334;36.986;-121.936;2022-10-26T14:30:28;101562.81;;;9.92;74.96
22333;BME280;11334;36.986;-121.936;2022-10-26T14:32:55;101562.81;;;9.92;74.93
22333;BME280;11334;36.986;-121.936;2022-10-26T14:35:31;101557.06;;;9.87;75.08
22333;BME280;11334;36.986;-121.936;2022-10-26T14:38:05;101556.81;;;9.90;75.86
22333;BME280;11334;36.986;-121.936;2022-10-26T14:40:35;101553.22;;;9.91;75.25
22333;BME280;11334;36.986;-121.936;2022-10-26T14:43:03;101545.75;;;9.85;75.18
22333;BME280;11334;36.986;-121.936;2022-10-26T14:45:35;101545.75;;;9.85;75.80
22333;BME280;11334;36.986;-121.936;2022-10-26T14:48:03;101535.84;;;9.78;75.99
22333;BME280;11334;36.986;-121.936;2022-10-26T14:50:31;101530.69;;;9.77;76.28
22333;BME280;11334;36.986;-121.936;2022-10-26T14:53:18;101534.88;;;9.79;76.43
22333;BME280;11334;36.986;-121.936;2022-10-26T14:55:49;101522.03;;;9.75;76.87
22333;BME280;11334;36.986;-121.936;2022-10-26T15:03:57;101534.16;;;9.97;77.21
22333;BME280;11334;36.986;-121.936;2022-10-26T15:08:56;101541.56;;;10.12;77.05
22333;BME280;11334;36.986;-121.936;2022-10-26T15:11:27;101564.03;;;10.18;77.58
22333;BME280;11334;36.986;-121.936;2022-10-26T15:13:55;101574.09;;;10.24;78.37
22333;BME280;11334;36.986;-121.936;2022-10-26T15:16:27;101549.44;;;10.33;80.25
22333;BME280;11334;36.986;-121.936;2022-10-26T15:19:05;101556.69;;;10.40;80.41
22333;BME280;11334;36.986;-121.936;2022-10-26T15:21:45;101545.88;;;10.43;80.70